createdAt,value
2022-12-25T00:00:24.298Z,1411.2
2022-12-25T00:02:07.665Z,1405.5
2022-12-25T00:03:51.014Z,1402.4
2022-12-25T00:05:34.401Z,1398.3
2022-12-25T00:07:17.776Z,1397
2022-12-25T00:12:27.027Z,1386.1
2022-12-25T00:14:10.410Z,1386.8
2022-12-25T00:15:53.823Z,1384.4
2022-12-25T00:17:37.196Z,1384.1
2022-12-25T00:19:20.611Z,1379.3
2022-12-25T00:21:04.071Z,1378.5
2022-12-25T00:22:47.404Z,1378.8
2022-12-25T00:24:30.829Z,1376.3
2022-12-25T00:26:14.515Z,1370.2
2022-12-25T00:27:57.891Z,1364.4
2022-12-25T00:29:41.341Z,1359.6
2022-12-25T00:31:24.706Z,1353.3
2022-12-25T00:33:08.093Z,1353.1
2022-12-25T00:34:51.490Z,1353.5
2022-12-25T00:36:34.865Z,1350.7
2022-12-25T00:38:18.281Z,1349.3
2022-12-25T00:41:44.743Z,1340.5
2022-12-25T00:43:28.151Z,1335.1
2022-12-25T00:45:11.531Z,1332.4
2022-12-25T00:46:55.003Z,1330.7
2022-12-25T00:48:38.467Z,1326.1
2022-12-25T00:50:21.798Z,1324
2022-12-25T00:52:05.215Z,1323
2022-12-25T00:53:48.559Z,1321.2
2022-12-25T00:55:32.302Z,1319.7
2022-12-25T00:57:15.708Z,1319.1
2022-12-25T00:58:59.131Z,1318.7
2022-12-25T01:00:42.750Z,1312.5
2022-12-25T01:02:25.869Z,1301
2022-12-25T01:04:09.276Z,1288.5
2022-12-25T01:05:52.593Z,1272.3
2022-12-25T01:07:35.992Z,1258.6
2022-12-25T01:11:02.487Z,1242.4
2022-12-25T01:12:45.936Z,1236.7
2022-12-25T01:14:29.250Z,1237.4
2022-12-25T01:16:12.657Z,1236.6
2022-12-25T01:17:56.055Z,1234.6
2022-12-25T01:19:39.441Z,1232.7
2022-12-25T01:21:22.859Z,1230.2
2022-12-25T01:23:06.246Z,1230.1
2022-12-25T01:24:49.947Z,1228.9
2022-12-25T01:26:33.331Z,1227.6
2022-12-25T01:28:16.729Z,1225.2
2022-12-25T01:30:00.162Z,1218.1
2022-12-25T01:31:43.560Z,1215.8
2022-12-25T01:33:26.931Z,1217.7
2022-12-25T01:35:10.315Z,1220.5
2022-12-25T01:36:53.713Z,1220.3
2022-12-25T01:40:20.190Z,1215.7
2022-12-25T01:42:03.680Z,1214.7
2022-12-25T01:43:46.972Z,1211
2022-12-25T01:45:30.364Z,1203.1
2022-12-25T01:47:13.767Z,1195.5
2022-12-25T01:48:57.171Z,1192.4
2022-12-25T01:50:40.563Z,1193.7
2022-12-25T01:52:23.957Z,1195.6
2022-12-25T01:55:50.445Z,1193.4
2022-12-25T01:57:33.833Z,1190.1
2022-12-25T01:59:17.224Z,1190.2
2022-12-25T02:01:00.618Z,1187
2022-12-25T02:02:44.039Z,1186.5
2022-12-25T02:04:27.404Z,1180.6
2022-12-25T02:06:10.859Z,1168
2022-12-25T02:07:54.287Z,1160.7
2022-12-25T02:11:20.666Z,1158.4
2022-12-25T02:13:04.076Z,1159
2022-12-25T02:14:47.470Z,1159.3
2022-12-25T02:16:30.860Z,1156.3
2022-12-25T02:18:14.269Z,1157
2022-12-25T02:19:57.720Z,1154.7
2022-12-25T02:21:41.064Z,1158.2
2022-12-25T02:23:24.452Z,1159.4
2022-12-25T02:26:50.958Z,1156.9
2022-12-25T02:28:34.307Z,1149.1
2022-12-25T02:30:17.722Z,1140
2022-12-25T02:32:01.120Z,1130
2022-12-25T02:33:44.510Z,1128.7
2022-12-25T02:35:27.906Z,1132.2
2022-12-25T02:37:11.371Z,1136.6
2022-12-25T02:38:54.703Z,1138.5
2022-12-25T02:42:21.174Z,1145.9
2022-12-25T02:44:04.582Z,1148.6
2022-12-25T02:45:47.974Z,1152.8
2022-12-25T02:47:31.353Z,1155.8
2022-12-25T02:49:14.754Z,1157.8
2022-12-25T02:50:58.143Z,1156.6
2022-12-25T02:52:41.544Z,1154.7
2022-12-25T02:54:24.958Z,1152.7
2022-12-25T02:57:51.433Z,1158
2022-12-25T02:59:34.819Z,1157.6
2022-12-25T03:01:18.207Z,1155.8
2022-12-25T03:03:01.614Z,1156
2022-12-25T03:04:45.008Z,1153.4
2022-12-25T03:06:28.406Z,1146.4
2022-12-25T03:08:12.034Z,1145.7
2022-12-25T03:09:55.197Z,1147.4
2022-12-25T03:13:21.682Z,1154.9
2022-12-25T03:15:05.084Z,1154.4
2022-12-25T03:16:48.459Z,1157.7
2022-12-25T03:18:31.858Z,1158.2
2022-12-25T03:20:15.233Z,1156.3
2022-12-25T03:21:58.649Z,1155.6
2022-12-25T03:23:42.041Z,1157.2
2022-12-25T03:25:25.421Z,1157.2
2022-12-25T03:28:51.910Z,1158.1
2022-12-25T03:30:35.331Z,1162.1
2022-12-25T03:32:18.764Z,1161.2
2022-12-25T03:34:02.128Z,1158.8
2022-12-25T03:35:45.485Z,1157.2
2022-12-25T03:37:28.899Z,1156.5
2022-12-25T03:39:12.297Z,1155.8
2022-12-25T03:40:55.672Z,1156.8
2022-12-25T03:44:22.154Z,1160.7
2022-12-25T03:46:05.563Z,1160
2022-12-25T03:47:48.946Z,1157.8
2022-12-25T03:49:32.341Z,1157.1
2022-12-25T03:51:15.741Z,1158.2
2022-12-25T03:52:59.141Z,1154.3
2022-12-25T03:54:42.550Z,1153.4
2022-12-25T03:56:25.916Z,1152.4
2022-12-25T04:01:35.172Z,1144.5
2022-12-25T04:03:18.557Z,1141.4
2022-12-25T04:05:01.992Z,1136.5
2022-12-25T04:06:45.354Z,1131.2
2022-12-25T04:08:28.759Z,1128.3
2022-12-25T04:10:12.136Z,1130.3
2022-12-25T04:13:38.942Z,1128.6
2022-12-25T04:17:05.426Z,1127
2022-12-25T04:18:48.819Z,1125.3
2022-12-25T04:20:32.402Z,1123.8
2022-12-25T04:22:15.619Z,1120.6
2022-12-25T04:23:59.464Z,1120.2
2022-12-25T04:25:42.402Z,1118.7
2022-12-25T04:27:25.861Z,1116.2
2022-12-25T04:29:09.184Z,1114.5
2022-12-25T04:32:35.666Z,1117.8
2022-12-25T04:34:19.058Z,1115.7
2022-12-25T04:36:02.480Z,1115.8
2022-12-25T04:37:45.850Z,1114.5
2022-12-25T04:39:29.250Z,1113.2
2022-12-25T04:41:12.644Z,1113.5
2022-12-25T04:42:56.060Z,1116.4
2022-12-25T04:44:39.664Z,1117.4
2022-12-25T04:48:05.917Z,1116.8
2022-12-25T04:49:49.298Z,1118.6
2022-12-25T04:51:32.701Z,1119.6
2022-12-25T04:53:16.091Z,1117.8
2022-12-25T04:54:59.517Z,1116.1
2022-12-25T04:56:42.881Z,1113.2
2022-12-25T04:58:26.286Z,1112.6
2022-12-25T05:00:09.711Z,1111.2
2022-12-25T05:03:36.145Z,1106.4
2022-12-25T05:05:19.554Z,1106.3
2022-12-25T05:07:02.947Z,1109
2022-12-25T05:08:46.333Z,1109.1
2022-12-25T05:10:29.723Z,1106.2
2022-12-25T05:12:13.120Z,1106.1
2022-12-25T05:13:56.534Z,1106.1
2022-12-25T05:15:39.922Z,1106.1
2022-12-25T05:19:06.394Z,1105.8
2022-12-25T05:20:49.794Z,1104.6
2022-12-25T05:22:33.199Z,1102.3
2022-12-25T05:24:16.591Z,1106
2022-12-25T05:25:59.983Z,1103.5
2022-12-25T05:27:43.422Z,1100.6
2022-12-25T05:29:26.780Z,1101.1
2022-12-25T05:31:10.182Z,1101.4
2022-12-25T05:36:19.420Z,1099.4
2022-12-25T05:38:02.813Z,1098.4
2022-12-25T05:39:46.193Z,1099.1
2022-12-25T05:41:29.584Z,1098.5
2022-12-25T05:43:13.013Z,1097.1
2022-12-25T05:44:56.384Z,1096.7
2022-12-25T05:46:39.787Z,1100.4
2022-12-25T05:48:23.187Z,1100.2
2022-12-25T05:53:32.442Z,1093.6
2022-12-25T05:55:15.813Z,1088
2022-12-25T05:56:59.222Z,1085.4
2022-12-25T05:58:42.612Z,1081.1
2022-12-25T06:00:26.032Z,1081
2022-12-25T06:02:09.407Z,1082.1
2022-12-25T06:03:52.795Z,1082.8
2022-12-25T06:05:36.197Z,1084.3
2022-12-25T06:10:45.437Z,1090.2
2022-12-25T06:12:28.830Z,1090.5
2022-12-25T06:14:12.245Z,1086.6
2022-12-25T06:15:55.613Z,1085.2
2022-12-25T06:17:39.024Z,1085.1
2022-12-25T06:19:22.422Z,1082.8
2022-12-25T06:21:05.827Z,1081.5
2022-12-25T06:22:49.207Z,1081.1
2022-12-25T06:26:15.716Z,1082.3
2022-12-25T06:27:59.075Z,1082.7
2022-12-25T06:29:42.492Z,1080.3
2022-12-25T06:31:25.887Z,1080.4
2022-12-25T06:33:09.261Z,1079.1
2022-12-25T06:34:52.720Z,1075.3
2022-12-25T06:36:36.057Z,1071.2
2022-12-25T06:38:19.465Z,1070.7
2022-12-25T06:43:28.698Z,1072.4
2022-12-25T06:45:12.228Z,1073.2
2022-12-25T06:46:55.496Z,1077.8
2022-12-25T06:48:38.897Z,1080.6
2022-12-25T06:50:22.283Z,1080.3
2022-12-25T06:52:05.691Z,1082.5
2022-12-25T06:53:49.088Z,1084
2022-12-25T06:55:32.460Z,1087.3
2022-12-25T06:58:58.950Z,1088.5
2022-12-25T07:00:42.346Z,1086
2022-12-25T07:02:25.742Z,1077.8
2022-12-25T07:05:52.533Z,1056.4
2022-12-25T07:07:35.916Z,1047.5
2022-12-25T07:09:19.362Z,1043.2
2022-12-25T07:11:02.758Z,1039.2
2022-12-25T07:12:46.115Z,1035.7
2022-12-25T07:14:29.809Z,1031.6
2022-12-25T07:16:13.211Z,1030.5
2022-12-25T07:17:56.595Z,1029
2022-12-25T07:19:40.085Z,1028.3
2022-12-25T07:21:23.542Z,1029
2022-12-25T07:23:06.797Z,1024.4
2022-12-25T07:24:50.220Z,1018.5
2022-12-25T07:26:33.580Z,1016.8
2022-12-25T07:28:16.983Z,1015.6
2022-12-25T07:31:43.460Z,1019.9
2022-12-25T07:33:27.050Z,1021.1
2022-12-25T07:35:10.300Z,1024.7
2022-12-25T07:36:53.664Z,1028.6
2022-12-25T07:38:37.048Z,1024.1
2022-12-25T07:40:20.437Z,1024.8
2022-12-25T07:42:03.836Z,1023.5
2022-12-25T07:43:47.231Z,1023.1
2022-12-25T07:47:13.699Z,1026.5
2022-12-25T07:48:57.266Z,1027.4
2022-12-25T07:50:40.493Z,1029.2
2022-12-25T07:52:23.914Z,1035.7
2022-12-25T07:54:07.326Z,1052.2
2022-12-25T07:55:50.753Z,1055.4
2022-12-25T07:57:34.147Z,1058.2
2022-12-25T07:59:17.553Z,1066.5
2022-12-25T08:02:43.953Z,1083.1
2022-12-25T08:04:27.351Z,1087.8
2022-12-25T08:06:10.805Z,1086.8
2022-12-25T08:07:54.212Z,1086.2
2022-12-25T08:09:37.536Z,1088.3
2022-12-25T08:11:21.021Z,1095
2022-12-25T08:13:04.316Z,1100.3
2022-12-25T08:14:47.713Z,1100.1
2022-12-25T08:18:14.311Z,1095
2022-12-25T08:19:57.594Z,1097.4
2022-12-25T08:21:41.071Z,1095.1
2022-12-25T08:23:24.400Z,1094.7
2022-12-25T08:25:07.896Z,1092.6
2022-12-25T08:26:51.246Z,1089.7
2022-12-25T08:28:34.573Z,1088.3
2022-12-25T08:30:17.965Z,1086.2
2022-12-25T08:32:01.823Z,1085.6
2022-12-25T08:33:45.100Z,1086.8
2022-12-25T08:35:28.489Z,1085.4
2022-12-25T08:37:11.855Z,1086.7
2022-12-25T08:38:55.309Z,1080
2022-12-25T08:40:38.658Z,807.5
2022-12-25T08:42:22.047Z,651.3
2022-12-25T08:44:05.450Z,535.5
2022-12-25T08:47:31.930Z,504.9
2022-12-25T08:49:15.306Z,500.7
2022-12-25T08:50:58.829Z,506
2022-12-25T08:52:42.179Z,515.8
2022-12-25T08:54:25.596Z,521.3
2022-12-25T08:56:09.017Z,527.5
2022-12-25T08:57:52.308Z,536.2
2022-12-25T08:59:35.906Z,541.6
2022-12-25T09:04:45.048Z,548.3
2022-12-25T09:06:28.557Z,549.5
2022-12-25T09:08:11.738Z,554
2022-12-25T09:09:55.192Z,557.4
2022-12-25T09:11:38.589Z,562.3
2022-12-25T09:13:21.943Z,569.3
2022-12-25T09:15:05.319Z,574.8
2022-12-25T09:16:48.708Z,581.1
2022-12-25T09:21:58.105Z,597.7
2022-12-25T09:25:24.880Z,603.6
2022-12-25T09:27:08.214Z,608.8
2022-12-25T09:28:51.612Z,614
2022-12-25T09:30:34.946Z,615.7
2022-12-25T09:32:18.495Z,620.5
2022-12-25T09:34:01.861Z,626.3
2022-12-25T09:37:28.256Z,640.5
2022-12-25T09:39:11.673Z,646.7
2022-12-25T09:40:54.984Z,652
2022-12-25T09:42:38.454Z,655
2022-12-25T09:44:21.846Z,664.3
2022-12-25T09:46:05.227Z,691.4
2022-12-25T09:47:48.666Z,718.2
2022-12-25T09:49:31.967Z,798.4
2022-12-25T09:52:58.533Z,782.7
2022-12-25T09:54:41.825Z,777.3
2022-12-25T09:56:25.310Z,779.3
2022-12-25T09:58:08.638Z,813
2022-12-25T09:59:52.042Z,831.4
2022-12-25T10:01:35.419Z,809.1
2022-12-25T10:03:18.828Z,795
2022-12-25T10:05:02.254Z,785.7
2022-12-25T10:08:28.685Z,779.2
2022-12-25T10:10:12.077Z,780.6
2022-12-25T10:11:55.581Z,778.3
2022-12-25T10:13:38.877Z,781.2
2022-12-25T10:15:22.274Z,783.5
2022-12-25T10:17:05.678Z,782.1
2022-12-25T10:18:49.056Z,782.4
2022-12-25T10:20:32.445Z,784.1
2022-12-25T10:22:15.859Z,781.7
2022-12-25T10:23:59.548Z,783.5
2022-12-25T10:25:42.955Z,789.8
2022-12-25T10:27:26.429Z,793.8
2022-12-25T10:29:09.739Z,797.5
2022-12-25T10:30:53.245Z,799
2022-12-25T10:32:36.565Z,798.8
2022-12-25T10:34:19.952Z,802.1
2022-12-25T10:36:03.345Z,801.1
2022-12-25T10:41:12.654Z,805
2022-12-25T10:42:55.993Z,809
2022-12-25T10:44:39.416Z,810.6
2022-12-25T10:46:22.752Z,811.4
2022-12-25T10:48:06.202Z,809.8
2022-12-25T10:49:49.588Z,810.7
2022-12-25T10:51:33.044Z,812.7
2022-12-25T10:53:16.394Z,824.7
2022-12-25T10:56:42.810Z,862.3
2022-12-25T10:58:26.218Z,865.7
2022-12-25T11:00:09.610Z,868.2
2022-12-25T11:01:52.998Z,870.8
2022-12-25T11:03:36.399Z,863.6
2022-12-25T11:05:19.831Z,880.3
2022-12-25T11:07:03.179Z,904.2
2022-12-25T11:08:46.614Z,890
2022-12-25T11:13:55.840Z,868.8
2022-12-25T11:15:39.220Z,875.6
2022-12-25T11:17:22.697Z,880
2022-12-25T11:19:06.104Z,882.8
2022-12-25T11:20:49.480Z,883.4
2022-12-25T11:22:32.983Z,885.1
2022-12-25T11:24:16.322Z,887.4
2022-12-25T11:25:59.666Z,885.2
2022-12-25T11:31:08.905Z,881.3
2022-12-25T11:32:52.307Z,880.3
2022-12-25T11:34:35.756Z,879.2
2022-12-25T11:36:19.021Z,877.1
2022-12-25T11:38:02.464Z,876.7
2022-12-25T11:39:45.826Z,874.7
2022-12-25T11:41:29.282Z,874.4
2022-12-25T11:43:12.667Z,873
2022-12-25T11:48:22.083Z,865.2
2022-12-25T11:50:05.353Z,860.4
2022-12-25T11:51:48.816Z,860.1
2022-12-25T11:53:32.067Z,859.6
2022-12-25T11:55:15.466Z,857.1
2022-12-25T11:56:58.873Z,856.3
2022-12-25T11:58:42.307Z,853.8
2022-12-25T12:00:25.761Z,852.1
2022-12-25T12:03:52.250Z,847.5
2022-12-25T12:05:35.586Z,846.4
2022-12-25T12:07:19.014Z,844.2
2022-12-25T12:09:02.401Z,843.1
2022-12-25T12:10:45.761Z,841.1
2022-12-25T12:12:29.090Z,842.1
2022-12-25T12:14:12.479Z,838.6
2022-12-25T12:15:55.957Z,837.4
2022-12-25T12:21:05.169Z,832.8
2022-12-25T12:22:48.551Z,829.3
2022-12-25T12:24:31.895Z,828.2
2022-12-25T12:26:15.301Z,825.6
2022-12-25T12:27:58.711Z,823.7
2022-12-25T12:29:42.220Z,819.3
2022-12-25T12:31:25.554Z,817.1
2022-12-25T12:33:08.912Z,813.8
2022-12-25T12:36:35.358Z,811.9
2022-12-25T12:38:18.821Z,811.1
2022-12-25T12:40:02.147Z,810
2022-12-25T12:41:45.539Z,808.4
2022-12-25T12:43:28.936Z,806.3
2022-12-25T12:45:12.356Z,804.6
2022-12-25T12:46:55.787Z,804.8
2022-12-25T12:48:39.135Z,804.4
2022-12-25T12:52:05.617Z,799.9
2022-12-25T12:53:49.025Z,796.6
2022-12-25T12:55:32.428Z,793.6
2022-12-25T12:57:15.841Z,795.7
2022-12-25T12:58:59.267Z,792.6
2022-12-25T13:00:42.691Z,790.7
2022-12-25T13:02:26.034Z,790.4
2022-12-25T13:04:09.360Z,787.6
2022-12-25T13:09:18.605Z,781.1
2022-12-25T13:11:02.022Z,775.1
2022-12-25T13:12:45.399Z,773.5
2022-12-25T13:14:28.792Z,770
2022-12-25T13:16:12.228Z,769.8
2022-12-25T13:17:55.634Z,779.4
2022-12-25T13:19:39.003Z,798.8
2022-12-25T13:21:22.392Z,815.7
2022-12-25T13:24:48.863Z,870.3
2022-12-25T13:26:32.326Z,903.3
2022-12-25T13:28:15.709Z,934.5
2022-12-25T13:29:59.048Z,993.8
2022-12-25T13:31:42.457Z,1044.2
2022-12-25T13:33:25.837Z,1030.1
2022-12-25T13:35:09.238Z,1009
2022-12-25T13:36:52.636Z,1000.8
2022-12-25T13:40:19.094Z,1014.6
2022-12-25T13:42:02.575Z,1022.6
2022-12-25T13:43:45.881Z,1070.7
2022-12-25T13:45:29.410Z,1080.4
2022-12-25T13:47:12.684Z,1066.1
2022-12-25T13:48:56.076Z,1056.7
2022-12-25T13:50:39.576Z,1058.5
2022-12-25T13:52:22.878Z,1065.6
2022-12-25T13:57:32.106Z,1112.1
2022-12-25T13:59:15.490Z,1134.5
2022-12-25T14:00:59.114Z,1149.8
2022-12-25T14:02:42.308Z,1176.4
2022-12-25T14:04:25.740Z,1197.6
2022-12-25T14:06:09.132Z,1198.7
2022-12-25T14:07:52.500Z,1194.7
2022-12-25T14:09:35.939Z,1197.3
2022-12-25T14:11:19.652Z,1209.6
2022-12-25T14:13:02.985Z,1226.7
2022-12-25T14:14:46.386Z,1228.3
2022-12-25T14:16:29.781Z,1217.1
2022-12-25T14:18:13.175Z,1216.2
2022-12-25T14:19:56.575Z,1212.5
2022-12-25T14:21:39.978Z,1205.8
2022-12-25T14:23:23.385Z,1202.8
2022-12-25T14:26:49.940Z,1196.2
2022-12-25T14:28:33.305Z,1193.7
2022-12-25T14:30:16.626Z,1188.2
2022-12-25T14:32:00.028Z,1181.4
2022-12-25T14:33:43.429Z,1172.4
2022-12-25T14:35:26.911Z,1165.2
2022-12-25T14:37:10.316Z,1164.7
2022-12-25T14:38:53.612Z,1163.4
2022-12-25T14:42:20.089Z,1169.7
2022-12-25T14:44:03.487Z,996.5
2022-12-25T14:45:46.928Z,811.4
2022-12-25T14:47:30.413Z,815.4
2022-12-25T14:49:13.683Z,811.5
2022-12-25T14:50:57.275Z,820.4
2022-12-25T14:52:40.451Z,815.6
2022-12-25T14:54:23.970Z,810.3
2022-12-25T14:59:33.094Z,823.6
2022-12-25T15:01:16.602Z,829.3
2022-12-25T15:02:59.941Z,829.7
2022-12-25T15:04:43.291Z,828.7
2022-12-25T15:06:26.767Z,828.3
2022-12-25T15:08:10.102Z,829.6
2022-12-25T15:09:53.471Z,830.2
2022-12-25T15:11:36.955Z,830.3
2022-12-25T15:15:03.357Z,832.1
2022-12-25T15:16:46.832Z,841.2
2022-12-25T15:18:30.158Z,849.4
2022-12-25T15:20:13.662Z,847.8
2022-12-25T15:21:57.077Z,848.5
2022-12-25T15:23:40.396Z,855.5
2022-12-25T15:25:23.722Z,856.4
2022-12-25T15:27:07.221Z,858.1
2022-12-25T15:32:16.391Z,862.8
2022-12-25T15:33:59.752Z,865.8
2022-12-25T15:35:43.164Z,869.6
2022-12-25T15:37:26.697Z,870.8
2022-12-25T15:39:09.990Z,875.8
2022-12-25T15:40:53.403Z,880.4
2022-12-25T15:42:36.820Z,887
2022-12-25T15:44:20.172Z,896
2022-12-25T15:47:46.620Z,900.4
2022-12-25T15:49:30.065Z,901.2
2022-12-25T15:51:13.571Z,898.3
2022-12-25T15:52:56.836Z,897.7
2022-12-25T15:54:40.283Z,898.6
2022-12-25T15:56:23.612Z,896.4
2022-12-25T15:58:07.000Z,895.3
2022-12-25T15:59:50.409Z,895.8
2022-12-25T16:03:16.880Z,894.7
2022-12-25T16:05:00.365Z,894.3
2022-12-25T16:06:43.643Z,893.7
2022-12-25T16:08:27.066Z,893.6
2022-12-25T16:10:10.532Z,894.5
2022-12-25T16:11:53.862Z,894.7
2022-12-25T16:13:37.260Z,894.7
2022-12-25T16:15:20.613Z,894.8
2022-12-25T16:20:29.852Z,891.8
2022-12-25T16:22:13.244Z,891.8
2022-12-25T16:23:56.732Z,891.6
2022-12-25T16:25:40.068Z,871.2
2022-12-25T16:27:23.466Z,848.6
2022-12-25T16:29:06.840Z,864.1
2022-12-25T16:30:50.239Z,867.5
2022-12-25T16:32:33.636Z,872.8
2022-12-25T16:34:17.340Z,880.1
2022-12-25T16:36:00.751Z,888.1
2022-12-25T16:37:44.133Z,894.8
2022-12-25T16:39:27.533Z,895.3
2022-12-25T16:41:10.916Z,889.4
2022-12-25T16:42:54.355Z,882.8
2022-12-25T16:44:37.721Z,881.7
2022-12-25T16:46:21.108Z,883.4
2022-12-25T16:48:04.615Z,888.1
2022-12-25T16:51:31.048Z,901.5
2022-12-25T16:53:14.422Z,899.7
2022-12-25T16:54:57.803Z,903.3
2022-12-25T16:56:41.176Z,910.5
2022-12-25T16:58:24.629Z,940.3
2022-12-25T17:00:07.968Z,1003.8
2022-12-25T17:01:51.371Z,1041.4
2022-12-25T17:03:34.746Z,1072.3
2022-12-25T17:07:01.262Z,1100.4
2022-12-25T17:08:44.625Z,1111.3
2022-12-25T17:10:28.011Z,1116.2
2022-12-25T17:12:11.449Z,1125.8
2022-12-25T17:13:54.807Z,1136.8
2022-12-25T17:15:38.205Z,1145.6
2022-12-25T17:17:21.673Z,1153.6
2022-12-25T17:19:05.055Z,1159.6
2022-12-25T17:22:31.472Z,1175.5
2022-12-25T17:24:14.887Z,1184.1
2022-12-25T17:25:58.273Z,1190.6
2022-12-25T17:27:41.656Z,1193.7
2022-12-25T17:29:25.121Z,1200.3
2022-12-25T17:31:08.492Z,1207.5
2022-12-25T17:32:51.849Z,1216.1
2022-12-25T17:34:35.251Z,1223.5
2022-12-25T17:36:18.981Z,1227.4
2022-12-25T17:38:02.357Z,1235.8
2022-12-25T17:39:45.739Z,1243.5
2022-12-25T17:41:29.160Z,1248.1
2022-12-25T17:43:12.530Z,1257.1
2022-12-25T17:44:55.927Z,1266.3
2022-12-25T17:46:39.392Z,1279.4
2022-12-25T17:48:22.779Z,1292
2022-12-25T17:51:49.216Z,1315.5
2022-12-25T17:53:32.581Z,1324.4
2022-12-25T17:55:15.999Z,1330.6
2022-12-25T17:56:59.437Z,1338.5
2022-12-25T17:58:42.765Z,1344.3
2022-12-25T18:00:26.223Z,1347.5
2022-12-25T18:02:09.554Z,1348.8
2022-12-25T18:03:52.962Z,1350.3
2022-12-25T18:07:19.461Z,1349.6
2022-12-25T18:09:02.864Z,1349.7
2022-12-25T18:10:46.217Z,1349
2022-12-25T18:12:29.619Z,1356.4
2022-12-25T18:14:13.020Z,1363.2
2022-12-25T18:15:56.408Z,1363.8
2022-12-25T18:17:39.806Z,1364.4
2022-12-25T18:19:23.198Z,1362.6
2022-12-25T18:22:49.687Z,1369.2
2022-12-25T18:24:33.158Z,1373.3
2022-12-25T18:26:16.491Z,1373.3
2022-12-25T18:27:59.922Z,1376.7
2022-12-25T18:29:43.261Z,1382.4
2022-12-25T18:31:26.695Z,1385.7
2022-12-25T18:33:10.060Z,1387.7
2022-12-25T18:34:53.450Z,1390.3
2022-12-25T18:38:19.961Z,1391.7
2022-12-25T18:40:03.312Z,1393.1
2022-12-25T18:41:46.753Z,1394.4
2022-12-25T18:43:30.124Z,1394.8
2022-12-25T18:45:13.518Z,1397.1
2022-12-25T18:46:56.951Z,1395.8
2022-12-25T18:48:40.311Z,1395
2022-12-25T18:50:23.714Z,1398.5
2022-12-25T18:52:07.419Z,1408.4
2022-12-25T18:53:50.837Z,1414.1
2022-12-25T18:55:34.182Z,1416.6
2022-12-25T18:57:17.601Z,1420.2
2022-12-25T18:59:00.992Z,1424.7
2022-12-25T19:00:44.384Z,1426.2
2022-12-25T19:02:27.801Z,1427.8
2022-12-25T19:04:11.186Z,1426.3
2022-12-25T19:07:37.659Z,1429.2
2022-12-25T19:09:21.133Z,1431.4
2022-12-25T19:11:04.438Z,1434.1
2022-12-25T19:12:47.862Z,1435.5
2022-12-25T19:14:31.464Z,1436.7
2022-12-25T19:16:14.740Z,1436.5
2022-12-25T19:17:58.026Z,1443.7
2022-12-25T19:19:41.425Z,1451.5
2022-12-25T19:23:07.983Z,1456.9
2022-12-25T19:24:51.308Z,1456.7
2022-12-25T19:26:34.696Z,1458.7
2022-12-25T19:28:18.084Z,1459.7
2022-12-25T19:30:01.474Z,1463
2022-12-25T19:31:44.916Z,1467.7
2022-12-25T19:33:28.266Z,1469.5
2022-12-25T19:35:11.709Z,1469.4
2022-12-25T19:38:38.180Z,1467.8
2022-12-25T19:40:21.530Z,1461.6
2022-12-25T19:42:05.073Z,1461.6
2022-12-25T19:43:48.336Z,1461
2022-12-25T19:45:31.716Z,1460.8
2022-12-25T19:47:15.155Z,1460.7
2022-12-25T19:48:58.567Z,1464.7
2022-12-25T19:50:41.905Z,1471.1
2022-12-25T19:52:25.335Z,1474.3
2022-12-25T19:54:09.154Z,1477.3
2022-12-25T19:55:52.418Z,1478.8
2022-12-25T19:57:35.815Z,1482.3
2022-12-25T19:59:19.306Z,1487.1
2022-12-25T20:01:02.597Z,1484.7
2022-12-25T20:02:45.989Z,1484.5
2022-12-25T20:04:29.444Z,1488.2
2022-12-25T20:06:12.772Z,1491.2
2022-12-25T20:11:22.015Z,1502.6
2022-12-25T20:13:05.425Z,1505.6
2022-12-25T20:14:48.845Z,1504.1
2022-12-25T20:16:32.223Z,1505.2
2022-12-25T20:18:15.652Z,1507.5
2022-12-25T20:19:59.078Z,1509.7
2022-12-25T20:21:42.394Z,1511.5
2022-12-25T20:23:25.837Z,1517
2022-12-25T20:26:52.340Z,1518
2022-12-25T20:28:35.713Z,1518.2
2022-12-25T20:30:19.078Z,1517
2022-12-25T20:32:02.452Z,1518
2022-12-25T20:33:45.934Z,1516.1
2022-12-25T20:35:29.258Z,1513.5
2022-12-25T20:37:12.656Z,1508
2022-12-25T20:38:56.039Z,1507.6
2022-12-25T20:42:22.642Z,1522.7
2022-12-25T20:44:05.966Z,1530
2022-12-25T20:45:49.404Z,1533.4
2022-12-25T20:47:32.810Z,1533
2022-12-25T20:49:16.185Z,1531.6
2022-12-25T20:50:59.493Z,1532.3
2022-12-25T20:52:42.889Z,1533.6
2022-12-25T20:54:26.355Z,1538.1
2022-12-25T20:57:52.830Z,1544.3
2022-12-25T20:59:36.223Z,1539.4
2022-12-25T21:01:19.594Z,1543
2022-12-25T21:03:03.105Z,1543.8
2022-12-25T21:04:46.340Z,1540
2022-12-25T21:06:29.930Z,1536.1
2022-12-25T21:08:13.144Z,1537
2022-12-25T21:09:56.538Z,1536.4
2022-12-25T21:15:05.805Z,1533.2
2022-12-25T21:16:49.165Z,1532.2
2022-12-25T21:18:32.593Z,1533.5
2022-12-25T21:20:16.028Z,1534.2
2022-12-25T21:21:59.416Z,1533.4
2022-12-25T21:23:42.792Z,1533.5
2022-12-25T21:25:26.150Z,1533.4
2022-12-25T21:27:09.570Z,1530.4
2022-12-25T21:32:18.795Z,1538.6
2022-12-25T21:34:02.203Z,1542.7
2022-12-25T21:35:45.585Z,1541
2022-12-25T21:37:28.982Z,1541
2022-12-25T21:39:12.387Z,1543.1
2022-12-25T21:40:55.787Z,1543.7
2022-12-25T21:42:39.168Z,1540.1
2022-12-25T21:44:22.562Z,1540.4
2022-12-25T21:49:31.809Z,1544.2
2022-12-25T21:51:15.251Z,1543.8
2022-12-25T21:52:58.600Z,1547.1
2022-12-25T21:54:41.991Z,1549.5
2022-12-25T21:56:25.411Z,1556.1
2022-12-25T21:58:08.786Z,1559.7
2022-12-25T21:59:52.228Z,1563.1
2022-12-25T22:01:35.589Z,1567.4
2022-12-25T22:06:44.816Z,1564.1
2022-12-25T22:08:28.216Z,1570.4
2022-12-25T22:10:11.686Z,1571.2
2022-12-25T22:11:55.025Z,1571.3
2022-12-25T22:13:56.654Z,1570.7
2022-12-25T22:15:24.827Z,1572.1
2022-12-25T22:17:05.201Z,1572.1
2022-12-25T22:18:48.594Z,1573.4
2022-12-25T22:22:15.074Z,1572
2022-12-25T22:23:58.467Z,1570.5
2022-12-25T22:25:41.978Z,1566.7
2022-12-25T22:27:25.266Z,1564.7
2022-12-25T22:29:08.657Z,1565.5
2022-12-25T22:30:52.052Z,1564.1
2022-12-25T22:32:35.455Z,1566.3
2022-12-25T22:34:18.837Z,1566.7
2022-12-25T22:37:45.394Z,1565.2
2022-12-25T22:39:28.706Z,1562.8
2022-12-25T22:41:12.106Z,1563.1
2022-12-25T22:42:55.513Z,1566.2
2022-12-25T22:44:38.916Z,1567.8
2022-12-25T22:46:22.287Z,1564.4
2022-12-25T22:48:05.699Z,1564.3
2022-12-25T22:49:49.109Z,1564.4
2022-12-25T22:53:15.550Z,928.6
2022-12-25T22:54:58.973Z,670.6
2022-12-25T22:56:42.357Z,541.1
2022-12-25T22:58:25.756Z,497.7
2022-12-25T23:00:09.156Z,466.2
2022-12-25T23:01:52.552Z,467.8
2022-12-25T23:03:35.951Z,474.8
2022-12-25T23:05:19.336Z,479.4
2022-12-25T23:08:45.808Z,490.5
2022-12-25T23:10:29.203Z,497.4
2022-12-25T23:12:12.610Z,501.8
2022-12-25T23:13:56.000Z,508.4
2022-12-25T23:15:39.392Z,514.3
2022-12-25T23:17:22.790Z,519.7
2022-12-25T23:19:06.180Z,480.3
2022-12-25T23:20:49.574Z,261.4
2022-12-25T23:22:32.976Z,183.2
2022-12-25T23:25:59.462Z,198.5
2022-12-25T23:27:42.864Z,361.8
2022-12-25T23:29:26.235Z,616.5
2022-12-25T23:31:09.667Z,527.8
2022-12-25T23:32:53.050Z,536.2
2022-12-25T23:34:36.460Z,545
2022-12-25T23:36:19.923Z,613
2022-12-25T23:38:03.235Z,591.3
2022-12-25T23:39:46.604Z,585
2022-12-25T23:43:13.086Z,581.1
2022-12-25T23:44:56.486Z,578.2
2022-12-25T23:46:39.894Z,574.8
2022-12-25T23:48:23.282Z,576.5
2022-12-25T23:50:06.688Z,486.4
2022-12-25T23:51:50.092Z,620.5
2022-12-25T23:53:33.456Z,598.5
2022-12-25T23:55:16.948Z,596.7
